Time;durP1;ratioP1;P1;durP2;ratioP2;P2;SDS_P1;SDS_P2;PMS_P1;PMS_P2;Temp;Humidity;BMP_temperature;BMP_pressure;BME280_temperature;BME280_humidity;BME280_pressure;Samples;Min_cycle;Max_cycle;Signal;HPM_P1;HPM_P2
2021/12/15 00:02:11;;;;;;;20.77;8.80;;;1.50;99.90;;;;;;5136309;27;20047;-86
2021/12/15 00:04:40;;;;;;;20.88;9.55;;;1.50;99.90;;;;;;5118100;27;20047;-87
2021/12/15 00:07:06;;;;;;;24.67;9.32;;;1.50;99.90;;;;;;5117981;27;20452;-86
2021/12/15 00:09:33;;;;;;;15.70;8.77;;;1.50;99.90;;;;;;5118014;27;20057;-86
2021/12/15 00:12:03;;;;;;;19.67;9.77;;;1.50;99.90;;;;;;5117747;27;20043;-87
2021/12/15 00:14:32;;;;;;;18.45;9.07;;;1.50;99.90;;;;;;5118087;27;20065;-87
2021/12/15 00:17:00;;;;;;;26.75;11.32;;;1.60;99.90;;;;;;5117499;27;20061;-87
2021/12/15 00:19:27;;;;;;;21.95;9.25;;;1.50;99.90;;;;;;5117896;27;20133;-87
2021/12/15 00:21:55;;;;;;;19.00;9.82;;;1.50;99.90;;;;;;5117942;27;20043;-87
2021/12/15 00:24:23;;;;;;;16.85;8.88;;;1.60;99.90;;;;;;5117567;27;20053;-87
2021/12/15 00:26:50;;;;;;;16.00;8.95;;;1.60;99.90;;;;;;5117351;27;20045;-87
2021/12/15 00:29:16;;;;;;;19.67;9.55;;;1.60;99.90;;;;;;5117369;27;20046;-87
2021/12/15 00:31:46;;;;;;;16.27;8.82;;;1.70;99.90;;;;;;5135733;27;20059;-86
2021/12/15 00:34:14;;;;;;;17.25;8.90;;;1.70;99.90;;;;;;5135645;27;20130;-87
2021/12/15 00:36:44;;;;;;;18.35;9.95;;;1.70;99.90;;;;;;5135646;27;20560;-87
2021/12/15 00:39:15;;;;;;;20.27;9.35;;;1.70;99.90;;;;;;5117065;27;20478;-87
2021/12/15 00:41:43;;;;;;;16.80;8.45;;;1.80;99.90;;;;;;5117108;27;20043;-87
2021/12/15 00:44:11;;;;;;;16.48;8.15;;;1.80;99.90;;;;;;5135414;27;20131;-87
2021/12/15 00:46:39;;;;;;;12.48;7.25;;;1.80;99.90;;;;;;5117680;27;20562;-88
2021/12/15 00:49:07;;;;;;;17.50;8.70;;;1.80;99.90;;;;;;5117213;27;20049;-87
2021/12/15 00:51:36;;;;;;;21.77;9.07;;;1.80;99.90;;;;;;5116963;27;20138;-87
2021/12/15 00:54:04;;;;;;;15.90;8.07;;;1.80;99.90;;;;;;5116952;27;20049;-87
2021/12/15 00:56:31;;;;;;;26.00;11.35;;;1.90;99.90;;;;;;5134793;27;20043;-87
2021/12/15 00:58:58;;;;;;;22.20;10.20;;;2.00;99.90;;;;;;5117080;27;20520;-86
2021/12/15 01:01:26;;;;;;;29.45;11.23;;;1.80;99.90;;;;;;5117290;27;20039;-87
2021/12/15 01:03:54;;;;;;;29.88;11.57;;;1.90;99.90;;;;;;5121092;27;20046;-87
2021/12/15 01:06:21;;;;;;;29.65;11.57;;;1.90;99.90;;;;;;5135135;27;20055;-87
2021/12/15 01:08:56;;;;;;;30.02;12.65;;;2.00;99.90;;;;;;5116712;27;20142;-87
2021/12/15 01:22:20;;;;;;;22.35;9.60;;;2.00;99.90;;;;;;5134875;27;20043;-87
2021/12/15 01:24:47;;;;;;;16.42;8.43;;;1.90;99.90;;;;;;5116588;27;20061;-87
2021/12/15 01:27:15;;;;;;;12.95;6.53;;;1.80;99.90;;;;;;5116696;27;20051;-87
2021/12/15 01:29:41;;;;;;;13.15;6.85;;;1.70;99.90;;;;;;5116632;27;20055;-87
2021/12/15 01:32:08;;;;;;;13.10;6.53;;;1.50;99.90;;;;;;5116197;27;20094;-87
2021/12/15 01:34:35;;;;;;;9.80;6.57;;;1.40;99.90;;;;;;5134033;27;20051;-87
2021/12/15 01:37:02;;;;;;;15.90;8.05;;;1.40;99.90;;;;;;5134376;27;20070;-87
2021/12/15 01:39:30;;;;;;;22.00;10.30;;;1.40;99.90;;;;;;5134665;27;20049;-87
2021/12/15 01:41:57;;;;;;;24.05;10.73;;;1.40;99.90;;;;;;5134466;27;20097;-86
2021/12/15 01:46:59;;;;;;;41.72;12.43;;;1.60;99.90;;;;;;5134373;27;20049;-86
2021/12/15 01:49:41;;;;;;;20.55;9.55;;;1.60;99.90;;;;;;5116421;28;20047;-87
2021/12/15 01:52:13;;;;;;;17.55;8.65;;;1.60;99.90;;;;;;5116558;28;20057;-87
2021/12/15 01:54:42;;;;;;;18.27;9.52;;;1.70;99.90;;;;;;5116519;28;20086;-87
2021/12/15 01:57:11;;;;;;;22.13;9.30;;;1.80;99.90;;;;;;5134314;28;20045;-87
2021/12/15 01:59:38;;;;;;;22.48;10.68;;;1.90;99.90;;;;;;5116476;28;20047;-87
2021/12/15 02:02:07;;;;;;;24.27;10.68;;;2.10;99.90;;;;;;5134442;28;20110;-87
2021/12/15 02:04:34;;;;;;;22.10;9.27;;;2.10;99.90;;;;;;5133765;28;20074;-87
2021/12/15 02:07:03;;;;;;;21.15;9.00;;;2.10;99.90;;;;;;5116068;28;20054;-86
2021/12/15 02:12:07;;;;;;;26.23;9.77;;;2.20;99.90;;;;;;5134151;28;20046;-87
2021/12/15 02:14:34;;;;;;;26.92;9.98;;;2.10;99.90;;;;;;5115376;28;20047;-87
2021/12/15 02:17:02;;;;;;;20.38;9.70;;;2.10;99.90;;;;;;5116792;28;20057;-87
2021/12/15 02:19:29;;;;;;;22.65;9.15;;;2.20;99.90;;;;;;5119357;28;20130;-87
2021/12/15 02:21:58;;;;;;;14.40;8.40;;;2.20;99.90;;;;;;5116102;28;20532;-86
2021/12/15 02:24:26;;;;;;;14.13;7.95;;;2.20;99.90;;;;;;5116048;28;20507;-86
2021/12/15 02:26:58;;;;;;;19.10;9.18;;;2.30;99.90;;;;;;5116002;28;20055;-87
2021/12/15 02:29:29;;;;;;;22.83;9.90;;;2.30;99.90;;;;;;5116063;28;20053;-87
2021/12/15 02:32:07;;;;;;;15.30;8.82;;;2.30;99.90;;;;;;5133707;28;20061;-87
2021/12/15 02:37:22;;;;;;;16.73;8.98;;;2.30;99.90;;;;;;5123684;28;20095;-87
2021/12/15 02:40:00;;;;;;;31.48;9.93;;;2.30;99.90;;;;;;5115731;28;20047;-87
2021/12/15 02:42:34;;;;;;;22.50;9.40;;;2.30;99.90;;;;;;5110732;28;20043;-87
2021/12/15 02:45:01;;;;;;;;;;;2.40;99.90;;;;;;5116074;28;20047;-86
2021/12/15 02:47:30;;;;;;;23.98;9.85;;;2.40;99.90;;;;;;5119268;27;20001;-87
2021/12/15 02:49:59;;;;;;;31.02;10.23;;;2.40;99.90;;;;;;5137830;27;20061;-87
2021/12/15 02:52:27;;;;;;;27.50;10.63;;;2.40;99.90;;;;;;5137680;27;20050;-87
2021/12/15 02:54:54;;;;;;;15.80;9.40;;;2.40;99.90;;;;;;5119386;27;20107;-87
2021/12/15 02:57:21;;;;;;;16.58;8.88;;;2.50;99.90;;;;;;5137703;27;20047;-87
2021/12/15 02:59:57;;;;;;;18.08;9.60;;;2.60;99.90;;;;;;5119403;27;20487;-87
2021/12/15 03:05:20;;;;;;;22.70;8.70;;;2.60;99.90;;;;;;5137545;27;20513;-86
2021/12/15 03:15:55;;;;;;;11.88;7.07;;;2.90;99.90;;;;;;5137706;27;20039;-87
2021/12/15 03:18:25;;;;;;;9.63;6.47;;;3.00;99.90;;;;;;5119488;27;20051;-86
2021/12/15 03:21:01;;;;;;;15.30;7.72;;;3.00;99.90;;;;;;5137256;27;20049;-87
2021/12/15 03:23:39;;;;;;;15.27;7.60;;;3.00;99.90;;;;;;5119456;27;20122;-87
2021/12/15 03:26:07;;;;;;;10.20;6.28;;;2.90;99.90;;;;;;5137065;27;20047;-86
2021/12/15 03:39:24;;;;;;;15.10;7.65;;;3.00;99.90;;;;;;5136971;27;20051;-87
2021/12/15 03:41:58;;;;;;;16.88;7.38;;;3.10;99.90;;;;;;5118750;27;20046;-87
2021/12/15 03:44:26;;;;;;;10.45;7.05;;;2.90;99.90;;;;;;5136813;27;20051;-86
2021/12/15 03:46:53;;;;;;;11.38;6.82;;;3.00;99.90;;;;;;5118699;27;20065;-86
2021/12/15 03:49:20;;;;;;;12.45;6.60;;;3.10;99.90;;;;;;5136942;27;20080;-87
2021/12/15 03:51:47;;;;;;;13.68;7.53;;;3.10;99.90;;;;;;5118769;27;20043;-87
2021/12/15 03:54:17;;;;;;;9.10;5.72;;;3.10;99.90;;;;;;5118914;27;20047;-87
2021/12/15 03:56:46;;;;;;;16.25;6.40;;;3.20;99.90;;;;;;5118749;27;20047;-87
2021/12/15 03:59:13;;;;;;;8.27;5.10;;;3.00;99.90;;;;;;5135968;27;20047;-86
2021/12/15 04:01:40;;;;;;;12.02;6.60;;;3.10;99.90;;;;;;5118365;27;20051;-86
2021/12/15 04:04:07;;;;;;;14.57;7.25;;;3.20;99.90;;;;;;5136166;27;20047;-86
2021/12/15 04:06:39;;;;;;;20.67;7.60;;;3.20;99.90;;;;;;5136215;27;20506;-86
2021/12/15 04:09:09;;;;;;;13.25;6.55;;;3.20;99.90;;;;;;5136052;27;20051;-86
2021/12/15 04:11:37;;;;;;;14.55;7.30;;;3.10;99.90;;;;;;5118209;27;20047;-87
2021/12/15 04:14:11;;;;;;;17.02;7.82;;;3.20;99.90;;;;;;5118210;27;20402;-87
2021/12/15 04:19:10;;;;;;;11.93;7.13;;;3.20;99.90;;;;;;5135851;27;20488;-87
2021/12/15 04:21:38;;;;;;;13.05;6.68;;;3.20;99.90;;;;;;5135947;27;20497;-86
2021/12/15 04:24:05;;;;;;;23.40;9.20;;;3.30;99.90;;;;;;5118134;27;20049;-87
2021/12/15 04:26:32;;;;;;;18.08;8.35;;;3.30;99.90;;;;;;5117628;27;20039;-87
2021/12/15 04:28:59;;;;;;;24.50;8.27;;;3.10;99.90;;;;;;5117619;27;20043;-86
2021/12/15 04:31:29;;;;;;;19.48;9.00;;;3.10;99.90;;;;;;5117910;27;20146;-86
2021/12/15 04:34:03;;;;;;;18.05;8.23;;;3.10;99.90;;;;;;5117743;27;20121;-87
2021/12/15 04:36:34;;;;;;;16.05;7.65;;;3.20;99.90;;;;;;5135868;27;20483;-86
2021/12/15 04:39:05;;;;;;;11.32;7.25;;;3.20;99.90;;;;;;5138295;27;20051;-87
2021/12/15 04:41:33;;;;;;;10.15;6.53;;;3.30;99.90;;;;;;5119945;27;20081;-87
2021/12/15 04:44:11;;;;;;;13.07;7.53;;;3.40;99.90;;;;;;5135933;27;20049;-87
2021/12/15 04:46:44;;;;;;;17.40;7.85;;;3.40;99.90;;;;;;5117495;27;20055;-87
2021/12/15 04:49:13;;;;;;;10.80;7.43;;;3.30;99.90;;;;;;5124394;27;20049;-87
2021/12/15 04:51:40;;;;;;;11.13;6.68;;;3.40;99.90;;;;;;5118853;27;20494;-86
2021/12/15 04:54:08;;;;;;;13.13;7.03;;;3.40;99.90;;;;;;5117607;27;20086;-86
2021/12/15 04:56:35;;;;;;;19.05;8.60;;;3.50;99.90;;;;;;5117297;27;20098;-87
2021/12/15 04:59:03;;;;;;;13.00;7.65;;;3.50;99.90;;;;;;5117098;27;20530;-87
2021/12/15 05:01:30;;;;;;;16.35;7.25;;;3.40;99.90;;;;;;5117500;27;20043;-85
2021/12/15 05:03:58;;;;;;;8.93;6.75;;;3.40;99.90;;;;;;5117615;27;20555;-86
2021/12/15 05:06:25;;;;;;;10.05;6.68;;;3.50;99.90;;;;;;5135257;27;20483;-86
2021/12/15 05:08:52;;;;;;;15.13;7.80;;;3.60;99.90;;;;;;5116672;27;20047;-86
2021/12/15 05:11:20;;;;;;;12.40;6.65;;;3.60;99.90;;;;;;5134310;27;20051;-87
2021/12/15 05:13:47;;;;;;;11.38;6.50;;;3.60;99.90;;;;;;5117126;27;20051;-86
2021/12/15 05:16:16;;;;;;;14.90;7.72;;;3.70;99.90;;;;;;5117070;27;20502;-86
2021/12/15 05:18:44;;;;;;;10.30;7.47;;;3.70;99.90;;;;;;5117096;27;20100;-87
2021/12/15 05:21:11;;;;;;;11.82;6.63;;;3.70;99.90;;;;;;5116797;27;20130;-87
2021/12/15 05:23:43;;;;;;;17.83;8.13;;;3.70;99.90;;;;;;5116777;27;20047;-87
2021/12/15 05:26:11;;;;;;;19.45;9.43;;;3.80;99.90;;;;;;5116947;27;20529;-87
2021/12/15 05:28:38;;;;;;;16.42;10.40;;;3.70;99.90;;;;;;5134569;27;20047;-87
2021/12/15 05:31:05;;;;;;;22.55;11.77;;;3.60;99.90;;;;;;5116266;27;20121;-87
2021/12/15 05:33:32;;;;;;;31.70;15.77;;;3.80;99.90;;;;;;5116603;27;20126;-86
2021/12/15 05:35:58;;;;;;;29.48;15.77;;;3.80;99.90;;;;;;5134645;27;20486;-87
2021/12/15 05:38:26;;;;;;;25.98;14.82;;;3.80;99.90;;;;;;5116412;27;20047;-86
2021/12/15 05:40:53;;;;;;;35.10;14.05;;;3.80;99.90;;;;;;5116513;27;20047;-86
2021/12/15 05:43:20;;;;;;;16.50;9.85;;;3.80;99.90;;;;;;5116382;28;20047;-86
2021/12/15 05:45:48;;;;;;;17.77;9.82;;;3.80;99.90;;;;;;5116172;27;20055;-86
2021/12/15 05:48:16;;;;;;;9.55;6.30;;;3.80;99.90;;;;;;5116584;28;20095;-87
2021/12/15 05:50:44;;;;;;;11.40;6.68;;;3.80;99.90;;;;;;5116285;28;20054;-86
2021/12/15 05:53:11;;;;;;;12.70;7.20;;;3.70;99.90;;;;;;5116083;28;20051;-87
2021/12/15 05:55:40;;;;;;;21.48;8.43;;;3.80;99.90;;;;;;5134492;28;20554;-87
2021/12/15 05:58:07;;;;;;;16.48;7.00;;;3.70;99.90;;;;;;5116243;28;20547;-86
2021/12/15 06:00:37;;;;;;;17.40;7.68;;;3.70;99.90;;;;;;5116397;28;20112;-87
2021/12/15 06:03:05;;;;;;;11.38;6.28;;;3.80;99.90;;;;;;5137992;28;20082;-86
2021/12/15 06:05:32;;;;;;;10.00;5.85;;;3.80;99.90;;;;;;5137455;28;20055;-87
2021/12/15 06:07:59;;;;;;;16.35;10.27;;;4.00;99.90;;;;;;5134638;28;20047;-87
2021/12/15 06:10:29;;;;;;;15.45;10.32;;;4.00;99.90;;;;;;5116354;28;20057;-87
2021/12/15 06:12:58;;;;;;;17.10;9.75;;;4.00;99.90;;;;;;5116277;28;20066;-87
2021/12/15 06:15:28;;;;;;;12.18;9.13;;;4.10;99.90;;;;;;5115741;28;20055;-87
2021/12/15 06:17:59;;;;;;;15.73;9.60;;;4.10;99.90;;;;;;5116114;28;20413;-87
2021/12/15 06:20:27;;;;;;;14.68;10.45;;;4.10;99.90;;;;;;5134246;27;20053;-87
2021/12/15 06:22:55;;;;;;;15.25;10.60;;;4.10;99.90;;;;;;5120260;27;20061;-87
2021/12/15 06:25:22;;;;;;;15.90;9.23;;;4.10;99.90;;;;;;5120010;27;20045;-87
2021/12/15 06:27:49;;;;;;;15.52;8.60;;;4.20;99.90;;;;;;5120216;27;20051;-87
2021/12/15 06:30:16;;;;;;;15.43;7.95;;;4.20;99.90;;;;;;5137992;27;20051;-87
2021/12/15 06:32:43;;;;;;;16.15;8.77;;;4.20;99.90;;;;;;5119935;27;20057;-87
2021/12/15 06:35:10;;;;;;;14.38;7.63;;;4.20;99.90;;;;;;5120223;27;20069;-87
2021/12/15 06:37:37;;;;;;;11.88;7.40;;;4.10;99.90;;;;;;5120208;27;20138;-86
2021/12/15 06:40:08;;;;;;;12.38;7.53;;;4.00;99.90;;;;;;5137591;27;20154;-87
2021/12/15 06:42:37;;;;;;;12.23;7.35;;;4.00;99.90;;;;;;5120226;27;20130;-87
2021/12/15 06:45:08;;;;;;;20.73;7.93;;;4.10;99.90;;;;;;5119991;27;20043;-87
2021/12/15 06:57:16;;;;;;;11.77;6.63;;;4.10;99.90;;;;;;5119809;27;20039;-87
2021/12/15 06:58:41;;;;;;;8.65;6.55;;;4.10;99.90;;;;;;5137752;27;20085;-87
2021/12/15 07:01:09;;;;;;;12.77;6.82;;;4.10;99.90;;;;;;5119786;27;20483;-87
2021/12/15 07:03:36;;;;;;;8.60;5.65;;;4.10;99.90;;;;;;5119424;27;20065;-87
2021/12/15 07:06:03;;;;;;;9.68;5.38;;;4.20;99.90;;;;;;5137459;27;20497;-87
2021/12/15 07:08:30;;;;;;;11.38;6.60;;;4.20;99.90;;;;;;5119689;27;20047;-86
2021/12/15 07:11:00;;;;;;;15.60;6.82;;;4.30;99.90;;;;;;5119758;27;20073;-86
2021/12/15 07:13:28;;;;;;;14.60;6.25;;;4.20;99.90;;;;;;5119641;27;20046;-87
2021/12/15 07:16:04;;;;;;;14.38;5.93;;;4.10;99.90;;;;;;5119974;27;20390;-86
2021/12/15 07:18:44;;;;;;;13.07;5.82;;;4.10;99.90;;;;;;5121565;27;20054;-86
2021/12/15 07:21:21;;;;;;;12.63;5.95;;;4.20;99.90;;;;;;5142519;27;20471;-86
2021/12/15 07:23:50;;;;;;;13.20;5.88;;;4.30;99.90;;;;;;5137454;27;20051;-86
2021/12/15 07:26:18;;;;;;;17.85;5.50;;;4.30;99.90;;;;;;5137529;27;20142;-87
2021/12/15 07:28:45;;;;;;;9.55;5.95;;;4.30;99.90;;;;;;5118935;27;20074;-87
2021/12/15 07:31:14;;;;;;;14.35;5.72;;;4.30;99.90;;;;;;5136970;27;20104;-87
2021/12/15 07:33:41;;;;;;;15.40;6.15;;;4.30;99.90;;;;;;5136115;27;20043;-87
2021/12/15 07:36:08;;;;;;;11.43;5.97;;;4.30;99.90;;;;;;5136978;27;20043;-87
2021/12/15 07:38:41;;;;;;;12.13;5.78;;;4.30;99.90;;;;;;5119081;27;20148;-87
2021/12/15 07:41:24;;;;;;;15.45;8.48;;;4.30;99.90;;;;;;5118859;27;20125;-87
2021/12/15 07:43:52;;;;;;;12.52;8.75;;;4.40;99.90;;;;;;5119109;27;20053;-87
2021/12/15 07:46:39;;;;;;;12.32;8.38;;;4.50;99.90;;;;;;5121705;27;20047;-87
2021/12/15 07:49:05;;;;;;;15.65;10.65;;;4.50;99.90;;;;;;5136727;27;20043;-87
2021/12/15 07:51:32;;;;;;;21.27;13.90;;;4.50;99.90;;;;;;5136912;27;20051;-87
2021/12/15 07:53:59;;;;;;;18.48;12.63;;;4.60;99.90;;;;;;5118487;27;20089;-87
2021/12/15 07:56:26;;;;;;;19.25;12.45;;;4.70;99.90;;;;;;5136584;27;20054;-86
2021/12/15 07:58:53;;;;;;;22.15;14.02;;;4.60;99.90;;;;;;5129054;27;20047;-86
2021/12/15 08:01:22;;;;;;;18.10;9.65;;;4.60;99.90;;;;;;5112127;27;20083;-86
2021/12/15 08:03:51;;;;;;;14.80;10.43;;;4.70;99.90;;;;;;5125972;27;20051;-87
2021/12/15 08:06:19;;;;;;;23.20;12.95;;;4.80;99.90;;;;;;5097825;28;20596;-86
2021/12/15 08:08:45;;;;;;;22.88;11.98;;;4.90;99.90;;;;;;5097645;28;20082;-85
2021/12/15 08:11:13;;;;;;;34.22;15.30;;;5.00;99.90;;;;;;5115530;28;20043;-87
2021/12/15 08:13:40;;;;;;;35.55;19.85;;;4.90;99.90;;;;;;5097141;28;20051;-87
2021/12/15 08:16:07;;;;;;;23.75;12.93;;;4.90;99.90;;;;;;5115982;28;20105;-88
2021/12/15 08:18:34;;;;;;;24.55;14.80;;;5.10;99.90;;;;;;5114738;28;20055;-87
2021/12/15 08:21:04;;;;;;;30.35;16.55;;;5.10;99.90;;;;;;5114918;28;20043;-86
2021/12/15 08:23:31;;;;;;;24.38;16.27;;;5.10;99.90;;;;;;5097505;28;20071;-87
2021/12/15 08:25:59;;;;;;;27.05;17.05;;;5.30;99.90;;;;;;5097791;28;20050;-88
2021/12/15 08:28:26;;;;;;;24.80;15.30;;;5.50;99.90;;;;;;5098047;28;20464;-87
2021/12/15 08:30:53;;;;;;;19.98;12.82;;;5.60;99.90;;;;;;5094171;28;20120;-87
2021/12/15 08:33:22;;;;;;;17.52;11.60;;;5.60;99.90;;;;;;5094305;28;20143;-87
2021/12/15 08:36:03;;;;;;;19.23;11.57;;;5.80;99.90;;;;;;5096345;28;20050;-87
2021/12/15 08:38:32;;;;;;;30.27;16.15;;;5.90;99.90;;;;;;5095119;28;20083;-88
2021/12/15 08:41:04;;;;;;;36.20;17.35;;;5.80;99.90;;;;;;5092797;28;20446;-87
2021/12/15 08:43:31;;;;;;;35.60;17.35;;;5.80;99.90;;;;;;5094336;28;20044;-87
2021/12/15 08:46:04;;;;;;;46.15;26.92;;;5.70;99.90;;;;;;5093707;28;20051;-87
2021/12/15 08:48:33;;;;;;;46.08;26.73;;;5.80;99.90;;;;;;5094266;28;20426;-87
2021/12/15 08:51:00;;;;;;;40.88;25.02;;;6.10;99.90;;;;;;5093077;28;20123;-87
2021/12/15 08:53:27;;;;;;;207.30;116.07;;;6.10;99.90;;;;;;5093657;28;20135;-86
2021/12/15 08:55:54;;;;;;;29.13;17.92;;;6.10;99.90;;;;;;5093065;28;20054;-87
2021/12/15 08:58:22;;;;;;;20.02;11.30;;;6.00;99.90;;;;;;5092946;28;20044;-87
2021/12/15 09:00:51;;;;;;;41.65;25.27;;;6.30;99.90;;;;;;5093090;28;20451;-87
2021/12/15 09:03:20;;;;;;;18.00;10.88;;;6.50;99.90;;;;;;5093114;28;20090;-86
2021/12/15 09:05:51;;;;;;;47.65;30.83;;;6.60;99.90;;;;;;5093214;28;20067;-86
2021/12/15 09:08:19;;;;;;;53.75;35.83;;;6.50;99.90;;;;;;5102989;28;20058;-85
2021/12/15 09:10:46;;;;;;;25.23;18.42;;;6.50;99.90;;;;;;5103414;28;20066;-86
2021/12/15 09:13:14;;;;;;;5.78;4.40;;;6.80;99.90;;;;;;5104202;28;20066;-86
2021/12/15 09:15:42;;;;;;;8.68;6.32;;;6.90;99.90;;;;;;5106551;28;20064;-86
2021/12/15 09:18:10;;;;;;;8.30;4.65;;;7.10;99.90;;;;;;5102680;28;20046;-87
2021/12/15 09:20:40;;;;;;;9.15;7.18;;;7.20;99.90;;;;;;5102514;28;20043;-86
2021/12/15 09:23:09;;;;;;;6.63;5.43;;;7.30;99.90;;;;;;5105777;28;20036;-86
2021/12/15 09:25:37;;;;;;;6.03;4.65;;;7.30;99.90;;;;;;5103603;27;20047;-86
2021/12/15 09:28:04;;;;;;;2.20;2.10;;;7.40;99.90;;;;;;5101098;28;20132;-87
2021/12/15 09:30:33;;;;;;;4.25;2.50;;;7.70;99.90;;;;;;5101329;28;20468;-86
2021/12/15 09:33:00;;;;;;;7.75;3.63;;;7.80;99.90;;;;;;5102414;28;20053;-86
2021/12/15 09:35:30;;;;;;;1.73;1.63;;;8.00;99.90;;;;;;5103619;28;20050;-87
2021/12/15 09:37:57;;;;;;;2.55;2.20;;;8.30;99.90;;;;;;5103578;28;20051;-87
2021/12/15 09:40:24;;;;;;;3.08;1.73;;;8.50;99.90;;;;;;5103293;28;20070;-87
2021/12/15 09:42:51;;;;;;;2.22;1.20;;;8.60;99.90;;;;;;5103186;28;20139;-86
2021/12/15 09:46:12;;;;;;;1.75;1.52;;;8.70;99.90;;;;;;5102604;28;20555;-87
2021/12/15 10:02:09;;;;;;;0.90;0.90;;;8.70;99.90;;;;;;5093486;28;20355;-87
2021/12/15 10:17:23;;;;;;;0.70;0.70;;;8.80;99.90;;;;;;5093672;28;20049;-86
2021/12/15 10:18:15;;;;;;;0.60;0.60;;;8.90;99.90;;;;;;5093609;28;20105;-87
2021/12/15 10:20:42;;;;;;;0.70;0.70;;;8.90;99.90;;;;;;5093522;28;20081;-88
2021/12/15 10:23:14;;;;;;;1.02;0.60;;;9.10;99.90;;;;;;5092239;28;20044;-86
2021/12/15 10:25:53;;;;;;;0.77;0.70;;;9.00;99.90;;;;;;5092633;28;20087;-87
2021/12/15 10:28:25;;;;;;;0.80;0.80;;;9.00;99.90;;;;;;5092528;28;20052;-86
2021/12/15 10:31:00;;;;;;;0.68;0.63;;;9.10;99.90;;;;;;5100340;28;20079;-87
2021/12/15 10:33:34;;;;;;;0.73;0.65;;;9.30;99.90;;;;;;5095702;28;20047;-87
2021/12/15 10:36:08;;;;;;;0.70;0.65;;;9.40;99.90;;;;;;5095958;28;20399;-87
2021/12/15 10:38:41;;;;;;;1.58;1.00;;;9.40;99.90;;;;;;5095461;28;20058;-86
2021/12/15 10:41:25;;;;;;;1.00;0.90;;;9.50;99.90;;;;;;5096012;28;20051;-87
2021/12/15 10:44:00;;;;;;;0.50;0.50;;;9.70;99.90;;;;;;5095582;28;20040;-86
2021/12/15 10:46:29;;;;;;;2.17;1.20;;;9.80;99.90;;;;;;5095467;28;20054;-87
2021/12/15 10:49:04;;;;;;;1.00;0.88;;;10.00;99.90;;;;;;5113326;28;20078;-87
2021/12/15 10:51:51;;;;;;;0.43;0.43;;;10.20;99.90;;;;;;5113664;28;20051;-86
2021/12/15 10:54:30;;;;;;;0.55;0.55;;;10.20;99.90;;;;;;5095380;28;20057;-87
2021/12/15 10:57:04;;;;;;;0.50;0.40;;;10.50;99.90;;;;;;5113240;28;20044;-87
2021/12/15 10:59:38;;;;;;;0.52;0.40;;;10.50;99.90;;;;;;5096046;28;20044;-87
2021/12/15 11:02:30;;;;;;;1.55;0.60;;;10.90;99.90;;;;;;5098645;28;20062;-86
2021/12/15 11:05:05;;;;;;;0.50;0.50;;;11.10;99.90;;;;;;5116050;28;20055;-86
2021/12/15 11:07:56;;;;;;;1.00;1.00;;;11.30;99.90;;;;;;5116733;28;20093;-86
2021/12/15 11:10:31;;;;;;;0.70;0.70;;;10.70;99.90;;;;;;5118347;28;20044;-87
2021/12/15 11:12:59;;;;;;;1.08;0.75;;;10.50;99.90;;;;;;5116783;28;20055;-87
2021/12/15 11:15:40;;;;;;;2.00;0.60;;;10.60;99.90;;;;;;5099018;28;20483;-87
2021/12/15 11:18:17;;;;;;;0.80;0.80;;;10.70;99.90;;;;;;5098876;28;20093;-86
2021/12/15 11:21:15;;;;;;;0.50;0.50;;;11.10;99.90;;;;;;5098696;28;20150;-87
2021/12/15 11:23:42;;;;;;;1.23;1.00;;;11.10;99.90;;;;;;5112738;28;20134;-87
2021/12/15 11:26:12;;;;;;;0.57;0.57;;;11.50;99.90;;;;;;5116609;28;20050;-87
2021/12/15 11:28:41;;;;;;;1.33;1.10;;;11.70;99.90;;;;;;5098290;28;20048;-87
2021/12/15 11:31:21;;;;;;;0.40;0.40;;;11.70;99.90;;;;;;5116273;28;20114;-87
2021/12/15 11:33:52;;;;;;;0.70;0.60;;;11.50;99.90;;;;;;5098632;28;20072;-87
2021/12/15 11:36:22;;;;;;;0.85;0.55;;;11.30;99.90;;;;;;5098649;28;20402;-87
2021/12/15 11:38:52;;;;;;;0.70;0.68;;;11.10;99.90;;;;;;5098339;28;20050;-87
2021/12/15 11:41:25;;;;;;;0.80;0.65;;;11.10;99.90;;;;;;5098438;28;20075;-87
2021/12/15 11:43:55;;;;;;;0.68;0.68;;;11.20;99.90;;;;;;5098227;28;20044;-86
2021/12/15 11:46:30;;;;;;;1.38;0.55;;;11.20;99.90;;;;;;5100489;27;20044;-87
2021/12/15 11:49:02;;;;;;;0.68;0.68;;;11.20;99.90;;;;;;5107095;27;20505;-86
2021/12/15 11:51:55;;;;;;;1.02;0.90;;;11.00;99.90;;;;;;5127605;27;20452;-86
2021/12/15 11:54:30;;;;;;;0.70;0.70;;;10.80;99.90;;;;;;5109319;27;20082;-87
2021/12/15 11:56:58;;;;;;;0.50;0.50;;;10.70;99.90;;;;;;5110247;27;20104;-86
2021/12/15 11:59:43;;;;;;;0.50;0.50;;;10.40;99.90;;;;;;5124774;27;20053;-86
2021/12/15 12:02:23;;;;;;;0.80;0.60;;;10.20;99.90;;;;;;5121363;27;20105;-87
2021/12/15 12:04:56;;;;;;;0.55;0.55;;;10.10;99.90;;;;;;5097871;28;20054;-86
2021/12/15 12:07:30;;;;;;;1.35;0.43;;;9.80;99.90;;;;;;5116097;28;20052;-86
2021/12/15 12:10:20;;;;;;;0.52;0.52;;;9.60;99.90;;;;;;5097731;28;20047;-86
2021/12/15 12:12:53;;;;;;;0.40;0.40;;;9.50;99.90;;;;;;5098070;28;20055;-87
2021/12/15 12:15:24;;;;;;;0.68;0.52;;;9.40;99.90;;;;;;5100372;28;20059;-86
2021/12/15 12:17:55;;;;;;;8.38;1.02;;;9.40;99.90;;;;;;5098042;28;20047;-86
2021/12/15 12:20:34;;;;;;;9.75;1.80;;;9.20;99.90;;;;;;5100093;28;20085;-86
2021/12/15 12:23:02;;;;;;;4.45;1.10;;;9.10;99.90;;;;;;5103468;28;20139;-86
2021/12/15 12:25:38;;;;;;;3.75;1.23;;;9.10;99.90;;;;;;5097375;28;20055;-87
2021/12/15 12:28:11;;;;;;;2.05;0.70;;;9.10;99.90;;;;;;5097549;28;20062;-86
2021/12/15 12:30:45;;;;;;;3.80;1.10;;;9.20;99.90;;;;;;5097773;28;20051;-87
2021/12/15 12:33:24;;;;;;;1.63;0.55;;;9.40;99.90;;;;;;5115982;28;20048;-84
2021/12/15 12:36:35;;;;;;;0.60;0.50;;;9.60;99.90;;;;;;5100281;28;20059;-87
2021/12/15 12:39:10;;;;;;;0.38;0.38;;;9.80;99.90;;;;;;5081110;28;20050;-87
2021/12/15 12:41:41;;;;;;;0.30;0.30;;;9.90;99.90;;;;;;5096220;28;20051;-87
2021/12/15 12:44:10;;;;;;;1.55;0.55;;;10.10;99.90;;;;;;5095741;28;20054;-86
2021/12/15 12:46:54;;;;;;;1.00;0.60;;;10.30;99.90;;;;;;5095672;28;20048;-86
2021/12/15 13:00:56;;;;;;;0.80;0.80;;;9.80;99.90;;;;;;5115221;28;20517;-86
2021/12/15 13:03:33;;;;;;;1.25;0.65;;;9.80;99.90;;;;;;5097230;28;20054;-86
2021/12/15 13:06:07;;;;;;;0.43;0.40;;;9.50;99.90;;;;;;5097121;28;20051;-86
2021/12/15 13:08:44;;;;;;;0.98;0.70;;;9.50;99.90;;;;;;5114762;28;20131;-87
2021/12/15 13:11:22;;;;;;;0.57;0.43;;;9.30;99.90;;;;;;5097045;28;20104;-86
2021/12/15 13:14:05;;;;;;;0.50;0.50;;;9.10;99.90;;;;;;5097184;28;20051;-86
2021/12/15 13:16:50;;;;;;;3.30;0.55;;;9.10;99.90;;;;;;5097034;28;20044;-86
2021/12/15 13:19:22;;;;;;;2.47;0.88;;;9.00;99.90;;;;;;5114938;28;20092;-86
2021/12/15 13:30:30;;;;;;;3.15;1.30;;;9.00;99.90;;;;;;5113733;28;20091;-87
2021/12/15 13:33:05;;;;;;;4.90;1.38;;;8.90;99.90;;;;;;5114685;28;20138;-87
2021/12/15 13:35:58;;;;;;;3.55;0.77;;;8.80;99.90;;;;;;5097480;28;20432;-86
2021/12/15 13:38:53;;;;;;;4.82;0.90;;;8.60;99.90;;;;;;5060735;28;20047;-87
2021/12/15 13:41:39;;;;;;;0.65;0.60;;;8.40;99.90;;;;;;5090365;28;20048;-87
2021/12/15 13:44:15;;;;;;;0.70;0.70;;;8.30;99.90;;;;;;5096747;28;20056;-87
2021/12/15 13:47:04;;;;;;;0.50;0.50;;;8.30;99.90;;;;;;5096564;28;20056;-87
2021/12/15 13:49:54;;;;;;;1.63;0.57;;;8.30;99.90;;;;;;5096462;28;20052;-87
2021/12/15 13:52:43;;;;;;;1.80;0.60;;;8.20;99.90;;;;;;5096559;28;20043;-87
2021/12/15 13:55:20;;;;;;;1.70;0.80;;;8.20;99.90;;;;;;5096470;28;20047;-87
2021/12/15 13:57:49;;;;;;;2.83;1.13;;;8.10;99.90;;;;;;5096291;28;20058;-86
2021/12/15 14:00:19;;;;;;;0.60;0.60;;;8.10;99.90;;;;;;5114073;28;20055;-86
2021/12/15 14:03:10;;;;;;;2.47;0.90;;;8.10;99.90;;;;;;5095644;28;20406;-87
2021/12/15 14:06:03;;;;;;;0.88;0.88;;;8.10;99.90;;;;;;5096585;28;20135;-86
2021/12/15 14:08:39;;;;;;;1.60;0.60;;;8.00;99.90;;;;;;5092946;28;20050;-87
2021/12/15 14:11:29;;;;;;;2.05;0.70;;;7.90;99.90;;;;;;5096437;28;20134;-87
2021/12/15 14:13:58;;;;;;;1.10;1.00;;;7.90;99.90;;;;;;5113428;28;20043;-86
2021/12/15 14:16:39;;;;;;;1.83;1.38;;;7.80;99.90;;;;;;5113311;28;20059;-86
2021/12/15 14:19:10;;;;;;;0.60;0.60;;;7.80;99.90;;;;;;5096331;28;20048;-86
2021/12/15 14:21:38;;;;;;;12.43;1.83;;;7.80;99.90;;;;;;5096235;28;20044;-86
2021/12/15 14:24:07;;;;;;;1.90;1.80;;;7.80;99.90;;;;;;5096434;28;20051;-86
2021/12/15 14:26:42;;;;;;;1.00;0.95;;;7.80;99.90;;;;;;5113894;28;20044;-86
2021/12/15 14:29:19;;;;;;;1.40;1.30;;;7.80;99.90;;;;;;5096159;28;20552;-87
2021/12/15 14:31:47;;;;;;;1.40;1.30;;;7.80;99.90;;;;;;5096299;28;20095;-86
2021/12/15 14:34:18;;;;;;;1.67;1.58;;;7.80;99.90;;;;;;5096035;28;20483;-87
2021/12/15 14:36:52;;;;;;;1.80;1.70;;;7.80;99.90;;;;;;5114181;28;20418;-86
2021/12/15 14:39:25;;;;;;;1.45;1.20;;;7.70;99.90;;;;;;5113847;28;20059;-87
2021/12/15 14:41:58;;;;;;;0.85;0.85;;;7.70;99.90;;;;;;5096802;28;20083;-87
2021/12/15 14:44:31;;;;;;;2.35;1.35;;;7.70;99.90;;;;;;5099872;28;20058;-87
2021/12/15 14:47:05;;;;;;;0.80;0.80;;;7.70;99.90;;;;;;5100052;28;20479;-86